Terminal Aerodrome Forecast
Issued by NWS

Home | Current Version | Previous Version | Text Only | Print | Product List | Glossary On
Versions: 1 2 3 4 5 6 7 8 9 10 11 12 13
000
FTUS46 KLOX 252300 RRA
TAFVNY
TAF
KVNY 252348Z 2600/2624 13008KT P6SM FEW080
     FM260200 VRB04KT P6SM SKC
     FM261000 VRB03KT P6SM BKN008
     FM261500 VRB03KT P6SM SCT012
     FM261900 34008KT P6SM SKC=

USA.gov is the U.S. government's official web portal to all federal, state and local government web resources and services.